Time;durP1;ratioP1;P1;durP2;ratioP2;P2;SDS_P1;SDS_P2;PMS_P1;PMS_P2;Temp;Humidity;BMP_temperature;BMP_pressure;BME280_temperature;BME280_humidity;BME280_pressure;Samples;Min_cycle;Max_cycle;Signal;HPM_P1;HPM_P2
2024/01/27 00:01:46;;;;;;;24.27;15.60;;;;;;;;;;10318959;28;20371;-61
2024/01/27 00:06:47;;;;;;;24.88;16.83;;;;;;;;;;10327880;28;20042;-61
2024/01/27 00:11:47;;;;;;;23.25;16.17;;;;;;;;;;10326783;28;20034;-61
2024/01/27 00:16:48;;;;;;;21.90;15.90;;;;;;;;;;10326693;28;20034;-62
2024/01/27 00:21:49;;;;;;;26.45;15.93;;;;;;;;;;10328207;28;20031;-59
2024/01/27 00:26:49;;;;;;;29.30;16.40;;;;;;;;;;10326740;28;20158;-60
2024/01/27 00:31:50;;;;;;;21.88;15.38;;;;;;;;;;10326217;28;20038;-60
2024/01/27 00:36:51;;;;;;;23.98;16.13;;;;;;;;;;10323659;28;20499;-62
2024/01/27 00:41:54;;;;;;;21.40;15.30;;;;;;;;;;10328068;28;20105;-62
2024/01/27 00:46:55;;;;;;;21.38;14.75;;;;;;;;;;10327550;28;20034;-59
2024/01/27 00:51:56;;;;;;;30.75;14.23;;;;;;;;;;10324218;28;20042;-60
2024/01/27 00:56:56;;;;;;;22.73;13.93;;;;;;;;;;10326872;28;20018;-62
2024/01/27 01:01:57;;;;;;;23.05;13.52;;;;;;;;;;10328102;28;20278;-62
2024/01/27 01:06:57;;;;;;;21.70;13.63;;;;;;;;;;10326694;28;20026;-62
2024/01/27 01:11:58;;;;;;;22.40;14.88;;;;;;;;;;10328026;28;20031;-63
2024/01/27 01:16:58;;;;;;;20.58;13.77;;;;;;;;;;10314726;28;20034;-62
2024/01/27 01:21:59;;;;;;;17.67;13.32;;;;;;;;;;10326257;28;20030;-62
2024/01/27 01:27:00;;;;;;;19.58;13.38;;;;;;;;;;10327022;28;20410;-61
2024/01/27 01:32:02;;;;;;;17.40;13.35;;;;;;;;;;10325884;28;20206;-62
2024/01/27 01:37:03;;;;;;;18.52;13.50;;;;;;;;;;10323977;28;20082;-61
2024/01/27 01:42:04;;;;;;;17.38;13.60;;;;;;;;;;10324243;28;20125;-60
2024/01/27 01:47:04;;;;;;;18.40;12.90;;;;;;;;;;10325799;28;20117;-59
2024/01/27 01:52:06;;;;;;;16.15;12.05;;;;;;;;;;10324425;28;20100;-59
2024/01/27 01:57:07;;;;;;;19.60;13.10;;;;;;;;;;10321467;28;20038;-60
2024/01/27 02:02:10;;;;;;;16.95;12.15;;;;;;;;;;10325759;28;20129;-61
2024/01/27 02:07:11;;;;;;;15.65;12.93;;;;;;;;;;10323539;28;20045;-60
2024/01/27 02:12:12;;;;;;;20.73;12.50;;;;;;;;;;10326272;28;20056;-59
2024/01/27 02:17:12;;;;;;;19.05;13.05;;;;;;;;;;10321604;28;20034;-60
2024/01/27 02:22:13;;;;;;;20.95;12.77;;;;;;;;;;10319964;28;20529;-61
2024/01/27 02:27:13;;;;;;;17.17;12.18;;;;;;;;;;10313134;28;20109;-60
2024/01/27 02:32:14;;;;;;;16.40;11.63;;;;;;;;;;10324330;28;20027;-60
2024/01/27 02:37:15;;;;;;;16.90;12.13;;;;;;;;;;10311869;28;20138;-60
2024/01/27 02:42:15;;;;;;;15.48;11.80;;;;;;;;;;10322877;28;20037;-58
2024/01/27 02:47:16;;;;;;;15.27;11.77;;;;;;;;;;10326746;28;20026;-59
2024/01/27 02:52:16;;;;;;;17.42;11.50;;;;;;;;;;10322481;28;20038;-60
2024/01/27 02:57:19;;;;;;;16.70;12.32;;;;;;;;;;10325581;28;20031;-61
2024/01/27 03:02:20;;;;;;;15.32;11.85;;;;;;;;;;10319774;28;20022;-58
2024/01/27 03:07:20;;;;;;;14.63;11.13;;;;;;;;;;10328784;28;20030;-60
2024/01/27 03:12:22;;;;;;;18.30;11.20;;;;;;;;;;10341096;28;20080;-59
2024/01/27 03:17:23;;;;;;;15.98;11.45;;;;;;;;;;10325561;28;20121;-59
2024/01/27 03:22:24;;;;;;;13.48;11.45;;;;;;;;;;10326972;28;20082;-58
2024/01/27 03:27:24;;;;;;;18.13;10.75;;;;;;;;;;10328666;28;20113;-59
2024/01/27 03:32:25;;;;;;;14.10;11.52;;;;;;;;;;10329265;28;20030;-58
2024/01/27 03:37:26;;;;;;;15.65;11.43;;;;;;;;;;10279659;28;1119045;-59
2024/01/27 03:42:26;;;;;;;13.80;10.82;;;;;;;;;;10328438;28;20042;-62
2024/01/27 03:47:27;;;;;;;14.18;11.10;;;;;;;;;;10329755;28;20133;-60
2024/01/27 03:52:27;;;;;;;16.88;11.10;;;;;;;;;;10329709;28;20027;-62
2024/01/27 03:57:28;;;;;;;13.27;10.85;;;;;;;;;;10319612;28;20046;-61
2024/01/27 04:02:28;;;;;;;13.38;10.40;;;;;;;;;;10329328;28;20481;-59
2024/01/27 04:07:29;;;;;;;12.75;10.32;;;;;;;;;;10327632;28;20485;-59
2024/01/27 04:12:30;;;;;;;13.65;11.00;;;;;;;;;;10329593;28;20473;-60
2024/01/27 04:17:30;;;;;;;13.07;10.23;;;;;;;;;;10327004;28;20109;-58
2024/01/27 04:22:31;;;;;;;13.02;10.32;;;;;;;;;;10328392;28;20469;-60
2024/01/27 04:27:38;;;;;;;13.02;10.80;;;;;;;;;;10329413;28;20411;-59
2024/01/27 04:32:38;;;;;;;14.45;10.80;;;;;;;;;;10328509;28;20026;-61
2024/01/27 04:37:39;;;;;;;14.07;11.00;;;;;;;;;;10319684;28;20042;-60
2024/01/27 04:42:40;;;;;;;13.85;10.00;;;;;;;;;;10317155;28;21372;-61
2024/01/27 04:47:40;;;;;;;15.07;10.13;;;;;;;;;;10327650;28;20049;-61
2024/01/27 04:52:41;;;;;;;16.20;9.88;;;;;;;;;;10327752;28;20042;-59
2024/01/27 04:57:41;;;;;;;12.80;9.85;;;;;;;;;;10328693;28;20478;-63
2024/01/27 05:02:43;;;;;;;12.82;10.40;;;;;;;;;;10321528;28;20041;-62
2024/01/27 05:07:44;;;;;;;17.70;10.05;;;;;;;;;;10321829;28;20490;-62
2024/01/27 05:12:44;;;;;;;12.30;10.05;;;;;;;;;;10326252;28;20026;-61
2024/01/27 05:17:45;;;;;;;11.93;9.80;;;;;;;;;;10310631;28;20022;-61
2024/01/27 05:22:46;;;;;;;14.25;10.55;;;;;;;;;;10326449;28;20037;-59
2024/01/27 05:27:46;;;;;;;13.13;9.77;;;;;;;;;;10326824;28;20092;-60
2024/01/27 05:32:47;;;;;;;12.45;9.73;;;;;;;;;;10326053;28;20073;-61
2024/01/27 05:37:48;;;;;;;13.25;9.98;;;;;;;;;;10323374;28;20050;-62
2024/01/27 05:42:49;;;;;;;11.23;9.73;;;;;;;;;;10322817;28;20049;-62
2024/01/27 05:47:50;;;;;;;13.45;10.27;;;;;;;;;;10325825;28;20621;-62
2024/01/27 05:52:50;;;;;;;13.35;10.05;;;;;;;;;;10325445;28;20046;-63
2024/01/27 05:57:51;;;;;;;12.65;10.30;;;;;;;;;;10321841;28;20042;-62
2024/01/27 06:02:52;;;;;;;12.23;9.93;;;;;;;;;;10326317;28;20458;-63
2024/01/27 06:07:52;;;;;;;10.80;9.60;;;;;;;;;;10325352;28;20389;-63
2024/01/27 06:12:53;;;;;;;14.80;9.43;;;;;;;;;;10324840;28;20037;-63
2024/01/27 06:17:53;;;;;;;11.00;9.45;;;;;;;;;;10321785;28;20038;-63
2024/01/27 06:22:54;;;;;;;11.70;9.75;;;;;;;;;;10320782;28;20022;-60
2024/01/27 06:27:55;;;;;;;11.75;9.38;;;;;;;;;;10324380;28;20211;-60
2024/01/27 06:32:55;;;;;;;12.82;9.63;;;;;;;;;;10324612;28;20030;-60
2024/01/27 06:37:56;;;;;;;11.82;9.82;;;;;;;;;;10320148;28;20065;-59
2024/01/27 06:42:56;;;;;;;11.88;9.68;;;;;;;;;;10316801;28;20030;-60
2024/01/27 06:47:57;;;;;;;10.93;9.13;;;;;;;;;;10322914;28;20030;-59
2024/01/27 06:52:57;;;;;;;11.45;9.75;;;;;;;;;;10324488;28;20031;-62
2024/01/27 06:57:58;;;;;;;16.33;9.75;;;;;;;;;;10321448;28;20501;-63
2024/01/27 07:02:58;;;;;;;11.95;9.98;;;;;;;;;;10316746;28;20589;-59
2024/01/27 07:08:00;;;;;;;11.45;9.77;;;;;;;;;;10314370;28;20508;-58
2024/01/27 07:13:00;;;;;;;11.27;9.13;;;;;;;;;;10323888;28;20030;-60
2024/01/27 07:18:01;;;;;;;10.90;9.07;;;;;;;;;;10319610;28;20031;-60
2024/01/27 07:23:01;;;;;;;11.48;9.95;;;;;;;;;;10323501;28;20026;-60
2024/01/27 07:28:02;;;;;;;11.77;9.45;;;;;;;;;;10323036;28;20038;-60
2024/01/27 07:33:03;;;;;;;13.00;9.32;;;;;;;;;;10329799;28;20036;-63
2024/01/27 07:38:04;;;;;;;11.57;9.30;;;;;;;;;;10319036;28;20057;-62
2024/01/27 07:43:04;;;;;;;10.30;9.15;;;;;;;;;;10323330;28;20026;-59
2024/01/27 07:48:05;;;;;;;10.02;8.60;;;;;;;;;;10325106;28;20041;-59
2024/01/27 07:53:06;;;;;;;10.68;9.05;;;;;;;;;;10328697;28;20026;-59
2024/01/27 07:58:07;;;;;;;11.27;9.10;;;;;;;;;;10329701;28;20026;-60
2024/01/27 08:03:07;;;;;;;9.75;8.63;;;;;;;;;;10318184;28;20049;-59
2024/01/27 08:08:08;;;;;;;9.52;8.50;;;;;;;;;;10328676;28;20034;-59
2024/01/27 08:13:08;;;;;;;10.35;9.02;;;;;;;;;;10329000;28;20025;-60
2024/01/27 08:18:09;;;;;;;9.68;8.65;;;;;;;;;;10326004;28;20093;-59
2024/01/27 08:23:10;;;;;;;11.77;8.75;;;;;;;;;;10326802;28;20049;-59
2024/01/27 08:28:11;;;;;;;10.00;8.50;;;;;;;;;;10329268;28;20044;-60
2024/01/27 08:33:12;;;;;;;10.27;8.30;;;;;;;;;;10325441;28;20037;-59
2024/01/27 08:38:12;;;;;;;11.73;8.43;;;;;;;;;;10325884;28;20126;-59
2024/01/27 08:43:13;;;;;;;9.23;8.25;;;;;;;;;;10326960;28;20036;-59
2024/01/27 08:48:15;;;;;;;10.68;8.57;;;;;;;;;;10328741;28;20049;-59
2024/01/27 08:53:15;;;;;;;12.32;8.52;;;;;;;;;;10327870;28;20034;-63
2024/01/27 08:58:16;;;;;;;10.13;8.23;;;;;;;;;;10327198;28;20030;-63
2024/01/27 09:03:16;;;;;;;9.98;7.88;;;;;;;;;;10327101;28;20041;-59
2024/01/27 09:08:17;;;;;;;9.77;7.95;;;;;;;;;;10323979;28;20030;-60
2024/01/27 09:13:17;;;;;;;9.68;8.55;;;;;;;;;;10325746;28;20140;-58
2024/01/27 09:18:18;;;;;;;10.05;8.27;;;;;;;;;;10329349;28;20463;-60
2024/01/27 09:23:19;;;;;;;9.57;8.50;;;;;;;;;;10317365;28;20403;-59
2024/01/27 09:28:20;;;;;;;20.63;8.43;;;;;;;;;;10323751;28;20030;-59
2024/01/27 09:33:23;;;;;;;8.75;7.85;;;;;;;;;;10326483;28;20089;-59
2024/01/27 09:38:23;;;;;;;9.93;8.55;;;;;;;;;;10340961;28;20066;-61
2024/01/27 09:43:25;;;;;;;9.00;7.80;;;;;;;;;;10332825;28;20027;-59
2024/01/27 09:48:25;;;;;;;11.23;8.27;;;;;;;;;;10320570;28;20037;-60
2024/01/27 09:53:26;;;;;;;9.10;8.18;;;;;;;;;;10322864;28;20049;-60
2024/01/27 09:58:28;;;;;;;30.80;8.73;;;;;;;;;;10324181;28;20030;-60
2024/01/27 10:03:30;;;;;;;13.15;8.48;;;;;;;;;;10325500;28;20030;-60
2024/01/27 10:08:31;;;;;;;10.80;8.45;;;;;;;;;;10325041;28;20387;-60
2024/01/27 10:13:31;;;;;;;11.35;8.13;;;;;;;;;;10324163;28;20030;-60
2024/01/27 10:18:34;;;;;;;14.32;8.18;;;;;;;;;;10328529;28;20038;-59
2024/01/27 10:23:40;;;;;;;10.68;8.40;;;;;;;;;;10320007;28;20405;-59
2024/01/27 10:28:42;;;;;;;10.50;8.30;;;;;;;;;;10322867;28;20030;-59
2024/01/27 10:33:53;;;;;;;10.60;8.30;;;;;;;;;;10327381;28;20451;-59
2024/01/27 10:38:53;;;;;;;10.30;8.55;;;;;;;;;;10325060;28;20150;-59
2024/01/27 10:43:57;;;;;;;10.02;8.23;;;;;;;;;;10325297;28;20038;-59
2024/01/27 10:48:59;;;;;;;13.23;8.88;;;;;;;;;;10322427;28;20033;-59
2024/01/27 10:54:03;;;;;;;16.35;8.30;;;;;;;;;;10324616;28;20030;-60
2024/01/27 10:59:05;;;;;;;11.07;8.52;;;;;;;;;;10324166;28;20508;-58
2024/01/27 11:04:07;;;;;;;16.55;12.15;;;;;;;;;;10321764;28;20597;-59
2024/01/27 11:09:08;;;;;;;29.58;17.23;;;;;;;;;;10329878;28;20061;-60
2024/01/27 11:14:11;;;;;;;34.05;17.25;;;;;;;;;;10332112;28;20045;-60
2024/01/27 11:19:12;;;;;;;35.67;15.90;;;;;;;;;;10329796;28;20458;-60
2024/01/27 11:24:17;;;;;;;36.33;15.85;;;;;;;;;;10331092;28;20030;-60
2024/01/27 11:29:19;;;;;;;22.35;14.68;;;;;;;;;;10329617;28;20026;-60
2024/01/27 11:34:20;;;;;;;27.27;14.68;;;;;;;;;;10319074;28;20520;-60
2024/01/27 11:39:28;;;;;;;22.15;14.18;;;;;;;;;;10321681;28;20134;-59
2024/01/27 11:44:28;;;;;;;27.75;15.00;;;;;;;;;;10400424;28;20052;-60
2024/01/27 11:49:29;;;;;;;24.60;14.77;;;;;;;;;;10396445;28;20033;-59
2024/01/27 11:54:30;;;;;;;30.40;14.93;;;;;;;;;;10397248;28;20461;-60
2024/01/27 11:59:30;;;;;;;35.67;14.68;;;;;;;;;;10401477;28;20045;-60
2024/01/27 12:04:31;;;;;;;25.70;14.35;;;;;;;;;;10404703;28;20043;-60
2024/01/27 12:09:31;;;;;;;23.90;13.93;;;;;;;;;;10398285;28;20026;-60
2024/01/27 12:14:41;;;;;;;25.38;13.48;;;;;;;;;;10410528;28;20389;-59
2024/01/27 12:19:55;;;;;;;25.77;15.00;;;;;;;;;;10403286;28;20461;-60
2024/01/27 12:25:09;;;;;;;26.52;14.70;;;;;;;;;;10404187;28;20385;-60
2024/01/27 12:30:11;;;;;;;28.38;15.70;;;;;;;;;;10406325;28;20057;-61
2024/01/27 12:35:12;;;;;;;25.73;15.88;;;;;;;;;;10398642;28;20037;-60
2024/01/27 12:40:21;;;;;;;20.10;15.18;;;;;;;;;;10403788;28;20052;-60
2024/01/27 12:45:22;;;;;;;26.70;15.23;;;;;;;;;;10391944;28;20044;-60
2024/01/27 12:50:22;;;;;;;20.33;14.93;;;;;;;;;;10393476;28;20048;-59
2024/01/27 12:55:23;;;;;;;36.17;16.05;;;;;;;;;;10395709;28;20095;-60
2024/01/27 13:00:24;;;;;;;29.02;16.23;;;;;;;;;;10400538;28;20048;-59
2024/01/27 13:05:25;;;;;;;29.40;16.48;;;;;;;;;;10399734;28;20029;-60
2024/01/27 13:10:25;;;;;;;23.60;14.88;;;;;;;;;;10408833;28;20033;-60
2024/01/27 13:15:26;;;;;;;27.23;15.88;;;;;;;;;;10406094;28;20025;-60
2024/01/27 13:20:26;;;;;;;25.95;16.35;;;;;;;;;;10400472;28;20029;-60
2024/01/27 13:25:27;;;;;;;22.85;15.85;;;;;;;;;;10407475;28;20028;-60
2024/01/27 13:30:28;;;;;;;22.15;16.20;;;;;;;;;;10406921;28;20026;-59
2024/01/27 13:35:29;;;;;;;27.08;16.30;;;;;;;;;;10409382;28;20049;-60
2024/01/27 13:40:29;;;;;;;24.42;15.68;;;;;;;;;;10399295;28;20049;-60
2024/01/27 13:45:30;;;;;;;26.77;16.42;;;;;;;;;;10395351;28;20032;-59
2024/01/27 13:50:31;;;;;;;24.67;16.48;;;;;;;;;;10388299;28;20037;-59
2024/01/27 13:55:32;;;;;;;24.70;17.10;;;;;;;;;;10390595;28;20112;-59
2024/01/27 14:00:34;;;;;;;24.48;16.52;;;;;;;;;;10401280;28;20461;-59
2024/01/27 14:05:35;;;;;;;21.60;15.07;;;;;;;;;;10383389;28;20025;-59
2024/01/27 14:10:36;;;;;;;21.67;15.77;;;;;;;;;;10387422;28;20288;-59
2024/01/27 14:15:36;;;;;;;30.27;17.70;;;;;;;;;;10404589;28;20110;-59
2024/01/27 14:20:37;;;;;;;24.85;16.45;;;;;;;;;;10402772;28;20123;-59
2024/01/27 14:25:38;;;;;;;21.98;16.70;;;;;;;;;;10404450;28;20034;-59
2024/01/27 14:30:39;;;;;;;26.02;16.73;;;;;;;;;;10406174;28;20044;-59
2024/01/27 14:35:40;;;;;;;22.63;15.95;;;;;;;;;;10402016;28;20018;-59
2024/01/27 14:40:40;;;;;;;24.35;16.73;;;;;;;;;;10405755;28;20045;-59
2024/01/27 14:45:42;;;;;;;21.23;15.93;;;;;;;;;;10408387;28;20021;-59
2024/01/27 14:50:43;;;;;;;20.90;15.95;;;;;;;;;;10414683;28;20033;-59
2024/01/27 14:55:44;;;;;;;23.15;16.05;;;;;;;;;;10394510;28;20392;-59
2024/01/27 15:00:51;;;;;;;19.95;14.85;;;;;;;;;;10403632;28;20030;-59
2024/01/27 15:05:52;;;;;;;20.20;15.32;;;;;;;;;;10394200;28;20041;-59
2024/01/27 15:10:53;;;;;;;21.02;15.35;;;;;;;;;;10402962;28;20036;-59
2024/01/27 15:15:54;;;;;;;20.40;14.43;;;;;;;;;;10401621;28;20065;-59
2024/01/27 15:20:55;;;;;;;17.85;14.43;;;;;;;;;;10408010;28;20036;-59
2024/01/27 15:25:56;;;;;;;16.88;13.77;;;;;;;;;;10412465;28;20404;-59
2024/01/27 15:30:56;;;;;;;20.52;14.68;;;;;;;;;;10411414;28;20029;-59
2024/01/27 15:35:57;;;;;;;19.80;14.43;;;;;;;;;;10401076;28;20025;-59
2024/01/27 15:40:58;;;;;;;20.30;13.75;;;;;;;;;;10404856;28;20041;-59
2024/01/27 15:46:03;;;;;;;18.38;14.40;;;;;;;;;;10410115;28;20037;-59
2024/01/27 15:51:04;;;;;;;19.02;13.27;;;;;;;;;;10403068;28;20481;-59
2024/01/27 15:56:05;;;;;;;21.35;13.88;;;;;;;;;;10396783;28;20116;-59
2024/01/27 16:01:05;;;;;;;27.65;14.45;;;;;;;;;;10402620;28;20090;-59
2024/01/27 16:06:07;;;;;;;24.40;13.85;;;;;;;;;;10409950;28;20559;-59
2024/01/27 16:11:08;;;;;;;17.77;13.10;;;;;;;;;;10410195;28;20036;-59
2024/01/27 16:16:09;;;;;;;19.00;13.02;;;;;;;;;;10410774;28;20033;-59
2024/01/27 16:21:09;;;;;;;18.02;13.48;;;;;;;;;;10408413;28;20036;-59
2024/01/27 16:26:10;;;;;;;20.35;14.18;;;;;;;;;;10402704;28;20080;-59
2024/01/27 16:31:10;;;;;;;20.70;15.55;;;;;;;;;;10396944;28;20052;-59
2024/01/27 16:36:11;;;;;;;19.27;14.82;;;;;;;;;;10399979;28;20224;-59
2024/01/27 16:41:11;;;;;;;22.73;15.77;;;;;;;;;;10404559;28;20046;-59
2024/01/27 16:46:12;;;;;;;22.17;15.82;;;;;;;;;;10401526;28;20033;-59
2024/01/27 16:51:13;;;;;;;19.33;15.38;;;;;;;;;;10402234;28;20026;-59
2024/01/27 16:56:14;;;;;;;19.70;14.88;;;;;;;;;;10408552;28;20029;-59
2024/01/27 17:01:14;;;;;;;19.58;15.73;;;;;;;;;;10396950;28;20459;-59
2024/01/27 17:06:15;;;;;;;20.58;15.23;;;;;;;;;;10406517;28;20087;-60
2024/01/27 17:11:16;;;;;;;20.30;15.63;;;;;;;;;;10395175;28;20056;-59
2024/01/27 17:16:16;;;;;;;20.30;15.50;;;;;;;;;;10403016;28;20028;-59
2024/01/27 17:21:19;;;;;;;23.45;14.98;;;;;;;;;;10406027;28;20018;-59
2024/01/27 17:26:20;;;;;;;22.45;16.45;;;;;;;;;;10397039;28;20049;-59
2024/01/27 17:31:21;;;;;;;18.05;14.55;;;;;;;;;;10385949;28;20040;-59
2024/01/27 17:36:22;;;;;;;23.30;15.52;;;;;;;;;;10394061;28;20511;-59
2024/01/27 17:41:22;;;;;;;19.92;15.38;;;;;;;;;;10399919;28;20057;-59
2024/01/27 17:46:23;;;;;;;23.75;15.18;;;;;;;;;;10403390;28;20033;-59
2024/01/27 17:51:24;;;;;;;22.48;16.08;;;;;;;;;;10406528;28;20044;-59
2024/01/27 17:56:25;;;;;;;20.65;15.65;;;;;;;;;;10407081;28;20115;-59
2024/01/27 18:01:25;;;;;;;20.65;15.35;;;;;;;;;;10406683;28;20026;-59
2024/01/27 18:06:28;;;;;;;18.63;15.48;;;;;;;;;;10401472;28;20034;-59
2024/01/27 18:11:29;;;;;;;20.50;16.23;;;;;;;;;;10401608;28;20025;-59
2024/01/27 18:16:29;;;;;;;21.48;15.75;;;;;;;;;;10389342;28;20030;-60
2024/01/27 18:21:30;;;;;;;21.85;16.10;;;;;;;;;;10404712;28;20017;-58
2024/01/27 18:26:31;;;;;;;18.10;15.23;;;;;;;;;;10396454;28;20532;-58
2024/01/27 18:31:35;;;;;;;19.45;15.43;;;;;;;;;;10392551;28;20036;-59
2024/01/27 18:36:35;;;;;;;20.52;16.98;;;;;;;;;;10385130;28;20030;-59
2024/01/27 18:41:42;;;;;;;18.73;14.43;;;;;;;;;;10403688;28;20033;-59
2024/01/27 18:46:43;;;;;;;20.45;15.82;;;;;;;;;;10401867;28;20061;-57
2024/01/27 18:51:44;;;;;;;20.73;15.60;;;;;;;;;;10401641;28;20038;-59
2024/01/27 18:56:45;;;;;;;19.42;15.48;;;;;;;;;;10391316;28;20456;-59
2024/01/27 19:01:46;;;;;;;20.27;16.02;;;;;;;;;;10394976;28;20456;-60
2024/01/27 19:06:46;;;;;;;21.33;15.63;;;;;;;;;;10397144;28;20040;-59
2024/01/27 19:11:47;;;;;;;17.65;14.40;;;;;;;;;;10395448;28;20040;-59
2024/01/27 19:16:47;;;;;;;18.77;14.35;;;;;;;;;;10403753;28;20037;-59
2024/01/27 19:21:48;;;;;;;16.88;14.13;;;;;;;;;;10401438;28;20443;-59
2024/01/27 19:26:49;;;;;;;21.63;15.02;;;;;;;;;;10414762;28;20371;-59
2024/01/27 19:31:49;;;;;;;24.30;14.20;;;;;;;;;;10409975;28;20045;-59
2024/01/27 19:36:50;;;;;;;18.90;14.68;;;;;;;;;;10396636;28;20033;-59
2024/01/27 19:41:51;;;;;;;19.23;15.13;;;;;;;;;;10398400;28;20033;-59
2024/01/27 19:46:52;;;;;;;19.10;14.30;;;;;;;;;;10407505;28;20322;-58
2024/01/27 19:51:52;;;;;;;17.67;14.88;;;;;;;;;;10400594;28;20041;-59
2024/01/27 19:56:53;;;;;;;19.23;15.07;;;;;;;;;;10406208;28;20431;-59
2024/01/27 20:01:55;;;;;;;18.20;14.25;;;;;;;;;;10408453;28;20067;-59
2024/01/27 20:06:57;;;;;;;19.60;14.75;;;;;;;;;;10402230;28;20033;-59
2024/01/27 20:11:57;;;;;;;18.17;14.48;;;;;;;;;;10399473;28;20089;-60
2024/01/27 20:16:58;;;;;;;17.00;14.32;;;;;;;;;;10404711;28;20092;-59
2024/01/27 20:21:59;;;;;;;18.65;14.68;;;;;;;;;;10401705;28;20041;-59
2024/01/27 20:27:00;;;;;;;32.78;17.20;;;;;;;;;;10399374;28;20393;-60
2024/01/27 20:32:00;;;;;;;27.90;17.73;;;;;;;;;;10405234;28;20484;-60
2024/01/27 20:37:01;;;;;;;35.88;18.02;;;;;;;;;;10398389;28;20508;-60
2024/01/27 20:42:02;;;;;;;24.20;18.02;;;;;;;;;;10396354;28;20030;-60
2024/01/27 20:47:02;;;;;;;28.35;17.83;;;;;;;;;;10396707;28;20032;-60
2024/01/27 20:52:04;;;;;;;29.60;17.95;;;;;;;;;;10396699;28;20029;-60
2024/01/27 20:57:05;;;;;;;29.63;17.80;;;;;;;;;;10406738;28;20029;-60
2024/01/27 21:02:05;;;;;;;29.10;18.10;;;;;;;;;;10405248;28;20044;-60
2024/01/27 21:07:06;;;;;;;24.17;16.77;;;;;;;;;;10394384;28;20018;-59
2024/01/27 21:12:07;;;;;;;26.25;17.67;;;;;;;;;;10397830;28;20029;-59
2024/01/27 21:17:07;;;;;;;27.63;17.45;;;;;;;;;;10393835;28;20028;-60
2024/01/27 21:22:09;;;;;;;25.33;17.38;;;;;;;;;;10395398;28;20033;-59
2024/01/27 21:27:09;;;;;;;22.48;17.15;;;;;;;;;;10406308;28;20064;-60
2024/01/27 21:32:10;;;;;;;24.30;15.40;;;;;;;;;;10402338;28;20030;-60
2024/01/27 21:37:10;;;;;;;23.30;16.88;;;;;;;;;;10406704;28;20061;-60
2024/01/27 21:42:11;;;;;;;22.50;17.00;;;;;;;;;;10402520;28;20736;-60
2024/01/27 21:47:12;;;;;;;22.85;15.48;;;;;;;;;;10398724;28;20029;-60
2024/01/27 21:52:13;;;;;;;21.90;16.65;;;;;;;;;;10405389;28;20034;-60
2024/01/27 21:57:13;;;;;;;21.52;15.82;;;;;;;;;;10406828;28;20030;-60
2024/01/27 22:02:14;;;;;;;23.58;16.42;;;;;;;;;;10385493;28;20040;-60
2024/01/27 22:07:15;;;;;;;23.13;17.08;;;;;;;;;;10391787;28;20037;-59
2024/01/27 22:12:18;;;;;;;22.65;16.90;;;;;;;;;;10379456;28;20038;-60
2024/01/27 22:17:18;;;;;;;22.02;15.65;;;;;;;;;;10405753;28;20468;-59
2024/01/27 22:22:19;;;;;;;20.85;16.08;;;;;;;;;;10399458;28;20017;-60
2024/01/27 22:27:19;;;;;;;24.48;15.20;;;;;;;;;;10404106;28;20029;-60
2024/01/27 22:32:20;;;;;;;19.95;15.25;;;;;;;;;;10404335;28;20025;-60
2024/01/27 22:37:20;;;;;;;18.88;14.65;;;;;;;;;;10404398;28;20041;-59
2024/01/27 22:42:21;;;;;;;17.35;14.80;;;;;;;;;;10401871;28;20037;-59
2024/01/27 22:47:21;;;;;;;20.77;15.63;;;;;;;;;;10405471;28;20416;-60
2024/01/27 22:52:22;;;;;;;21.33;15.18;;;;;;;;;;10406014;28;20099;-60
2024/01/27 22:57:24;;;;;;;22.80;14.75;;;;;;;;;;10404880;28;20044;-59
2024/01/27 23:02:24;;;;;;;23.85;14.48;;;;;;;;;;10403362;28;20041;-60
2024/01/27 23:07:25;;;;;;;18.35;14.10;;;;;;;;;;10402139;28;20485;-60
2024/01/27 23:12:25;;;;;;;18.73;15.07;;;;;;;;;;10410296;28;20041;-60
2024/01/27 23:17:26;;;;;;;19.05;14.63;;;;;;;;;;10413115;28;20025;-59
2024/01/27 23:22:26;;;;;;;18.98;14.68;;;;;;;;;;10405521;28;20037;-59
2024/01/27 23:27:27;;;;;;;19.40;13.95;;;;;;;;;;10402876;28;20040;-60
2024/01/27 23:32:28;;;;;;;19.88;13.50;;;;;;;;;;10402322;28;20083;-59
2024/01/27 23:37:28;;;;;;;20.33;13.73;;;;;;;;;;10403877;28;20033;-59
2024/01/27 23:42:29;;;;;;;19.63;14.10;;;;;;;;;;10401508;28;20499;-60
2024/01/27 23:47:29;;;;;;;23.15;14.63;;;;;;;;;;10401293;28;20365;-59
2024/01/27 23:52:34;;;;;;;15.48;12.57;;;;;;;;;;10405432;28;20033;-59
2024/01/27 23:57:35;;;;;;;18.25;13.77;;;;;;;;;;10405720;28;20155;-58
